createdAt,value
2023-04-19T00:01:53.920Z,15.17
2023-04-19T00:04:39.432Z,12.83
2023-04-19T00:07:23.518Z,19.57
2023-04-19T00:10:08.813Z,15.33
2023-04-19T00:12:53.384Z,13.40
2023-04-19T00:15:37.721Z,14.53
2023-04-19T00:18:23.216Z,15.23
2023-04-19T00:21:07.872Z,10.20
2023-04-19T00:23:51.758Z,12.50
2023-04-19T00:26:35.812Z,14.73
2023-04-19T00:29:19.888Z,26.77
2023-04-19T00:32:06.033Z,26.73
2023-04-19T00:34:51.562Z,22.40
2023-04-19T00:37:35.892Z,15.47
2023-04-19T00:40:21.821Z,19.13
2023-04-19T00:43:05.809Z,20.47
2023-04-19T00:45:51.275Z,20.57
2023-04-19T00:48:37.520Z,27.30
2023-04-19T00:51:23.154Z,28.37
2023-04-19T00:54:08.432Z,23.50
2023-04-19T00:56:53.033Z,28.63
2023-04-19T00:59:37.017Z,22.37
2023-04-19T01:02:22.482Z,24.30
2023-04-19T01:05:08.086Z,24.83
2023-04-19T01:07:53.665Z,33.53
2023-04-19T01:10:37.622Z,27.07
2023-04-19T01:13:21.627Z,30.20
2023-04-19T01:16:07.732Z,29.73
2023-04-19T01:18:51.860Z,26.57
2023-04-19T01:21:39.556Z,26.20
2023-04-19T01:24:25.111Z,30.03
2023-04-19T01:27:09.135Z,30.83
2023-04-19T01:29:53.147Z,26.50
2023-04-19T01:32:37.218Z,29.40
2023-04-19T01:35:21.467Z,25.93
2023-04-19T01:38:05.611Z,28.00
2023-04-19T01:40:51.024Z,21.07
2023-04-19T01:43:35.071Z,31.40
2023-04-19T01:46:20.156Z,28.67
2023-04-19T01:49:03.947Z,27.30
2023-04-19T01:51:47.819Z,35.37
2023-04-19T01:54:31.758Z,28.93
2023-04-19T01:57:18.924Z,35.07
2023-04-19T02:00:03.297Z,27.73
2023-04-19T02:02:58.764Z,25.17
2023-04-19T02:05:42.680Z,27.83
2023-04-19T02:08:26.540Z,33.07
2023-04-19T02:11:10.875Z,34.63
2023-04-19T02:13:56.411Z,35.17
2023-04-19T02:16:40.582Z,33.73
2023-04-19T02:19:24.612Z,32.17
2023-04-19T02:22:08.539Z,38.63
2023-04-19T02:24:52.662Z,35.60
2023-04-19T02:27:36.837Z,40.50
2023-04-19T02:30:22.226Z,38.53
2023-04-19T02:33:07.753Z,43.03
2023-04-19T02:35:51.745Z,40.53
2023-04-19T02:38:35.569Z,47.13
2023-04-19T02:41:19.766Z,46.03
2023-04-19T02:44:03.745Z,39.27
2023-04-19T02:46:51.569Z,40.13
2023-04-19T02:49:37.974Z,40.77
2023-04-19T02:52:22.319Z,34.60
2023-04-19T02:55:06.955Z,37.20
2023-04-19T02:57:51.317Z,36.87
2023-04-19T03:00:35.784Z,38.43
2023-04-19T03:03:27.032Z,39.50
2023-04-19T03:06:11.272Z,40.17
2023-04-19T03:08:55.152Z,40.53
2023-04-19T03:11:39.093Z,36.03
2023-04-19T03:14:23.243Z,38.80
2023-04-19T03:17:07.702Z,31.97
2023-04-19T03:19:54.603Z,37.10
2023-04-19T03:22:39.179Z,28.67
2023-04-19T03:25:23.325Z,24.33
2023-04-19T03:28:16.058Z,24.40
2023-04-19T03:31:23.376Z,28.53
2023-04-19T03:34:10.280Z,22.03
2023-04-19T03:36:59.844Z,19.40
2023-04-19T03:39:43.762Z,28.97
2023-04-19T03:42:32.209Z,21.30
2023-04-19T03:45:23.037Z,21.63
2023-04-19T03:48:07.619Z,21.10
2023-04-19T03:50:52.161Z,23.23
2023-04-19T03:53:38.510Z,21.10
2023-04-19T03:56:22.402Z,28.40
2023-04-19T03:59:08.021Z,24.13
2023-04-19T04:01:54.225Z,24.50
2023-04-19T04:04:39.186Z,23.90
2023-04-19T04:07:24.762Z,30.47
2023-04-19T04:10:11.941Z,54.00
2023-04-19T04:12:59.612Z,27.87
2023-04-19T04:15:54.627Z,23.93
2023-04-19T04:18:38.880Z,27.70
2023-04-19T04:21:27.337Z,26.80
2023-04-19T04:24:14.335Z,20.67
2023-04-19T04:27:28.991Z,19.97
2023-04-19T04:30:13.676Z,24.20
2023-04-19T04:32:59.188Z,25.87
2023-04-19T04:35:44.186Z,26.77
2023-04-19T04:38:34.202Z,22.73
2023-04-19T04:41:18.200Z,22.27
2023-04-19T04:44:12.630Z,25.33
2023-04-19T04:46:58.193Z,22.53
2023-04-19T04:49:44.520Z,21.43
2023-04-19T04:52:28.502Z,18.07
2023-04-19T04:55:21.316Z,20.73
2023-04-19T04:58:05.718Z,22.33
2023-04-19T05:01:24.071Z,24.53
2023-04-19T05:04:09.543Z,24.60
2023-04-19T05:06:53.569Z,24.43
2023-04-19T05:09:42.270Z,24.00
2023-04-19T05:12:27.337Z,24.83
2023-04-19T05:15:12.404Z,24.47
2023-04-19T05:18:02.341Z,24.63
2023-04-19T05:20:46.946Z,23.23
2023-04-19T05:23:38.752Z,27.03
2023-04-19T05:26:23.229Z,24.23
2023-04-19T05:29:08.492Z,24.20
2023-04-19T05:32:04.205Z,21.77
2023-04-19T05:34:59.150Z,21.70
2023-04-19T05:37:43.162Z,21.47
2023-04-19T05:40:27.156Z,21.73
2023-04-19T05:43:11.484Z,20.97
2023-04-19T05:45:55.419Z,21.10
2023-04-19T05:48:39.238Z,19.63
2023-04-19T05:51:42.999Z,18.57
2023-04-19T05:54:47.173Z,18.03
2023-04-19T05:57:31.360Z,17.73
2023-04-19T06:00:17.348Z,20.63
2023-04-19T06:03:10.051Z,17.50
2023-04-19T06:05:54.220Z,17.87
2023-04-19T06:08:39.524Z,25.73
2023-04-19T06:11:29.231Z,27.77
2023-04-19T06:14:23.760Z,40.00
2023-04-19T06:17:07.935Z,31.30
2023-04-19T06:19:52.230Z,31.20
2023-04-19T06:22:37.150Z,30.20
2023-04-19T06:25:22.620Z,25.23
2023-04-19T06:28:06.780Z,22.53
2023-04-19T06:30:50.745Z,28.03
2023-04-19T06:33:34.685Z,23.43
2023-04-19T06:36:18.578Z,22.97
2023-04-19T06:39:02.484Z,30.57
2023-04-19T06:41:47.803Z,28.83
2023-04-19T06:44:33.885Z,20.43
2023-04-19T06:47:17.758Z,23.80
2023-04-19T06:50:01.533Z,24.07
2023-04-19T06:52:47.303Z,18.30
2023-04-19T06:55:31.240Z,23.83
2023-04-19T06:58:16.595Z,19.30
2023-04-19T07:01:01.370Z,14.43
2023-04-19T07:03:47.552Z,14.20
2023-04-19T07:06:31.912Z,11.10
2023-04-19T07:09:15.710Z,10.03
2023-04-19T07:11:59.549Z,10.23
2023-04-19T07:14:44.824Z,16.30
2023-04-19T07:17:28.693Z,10.80
2023-04-19T07:20:12.786Z,8.20
2023-04-19T07:22:56.832Z,9.33
2023-04-19T07:25:40.787Z,13.40
2023-04-19T07:28:24.627Z,12.27
2023-04-19T07:31:09.920Z,8.23
2023-04-19T07:33:54.239Z,10.80
2023-04-19T07:36:39.146Z,68.90
2023-04-19T07:39:23.008Z,8.87
2023-04-19T07:42:07.025Z,5.47
2023-04-19T07:44:51.288Z,4.13
2023-04-19T07:47:36.821Z,15.23
2023-04-19T07:50:23.123Z,16.23
2023-04-19T07:53:07.268Z,7.47
2023-04-19T07:55:51.390Z,12.43
2023-04-19T07:58:35.485Z,17.13
2023-04-19T08:01:19.405Z,5.77
2023-04-19T08:04:05.091Z,6.50
2023-04-19T08:06:49.034Z,109.33
2023-04-19T08:09:35.273Z,5.47
2023-04-19T08:12:30.951Z,3.50
2023-04-19T08:15:52.340Z,4.13
2023-04-19T08:18:21.436Z,8.70
2023-04-19T08:21:07.213Z,3.57
2023-04-19T08:23:53.555Z,2.83
2023-04-19T08:26:39.129Z,3.20
2023-04-19T08:29:23.468Z,2.37
2023-04-19T08:32:07.602Z,6.50
2023-04-19T08:34:51.411Z,1.60
2023-04-19T08:37:36.787Z,5.97
2023-04-19T08:40:20.939Z,2.70
2023-04-19T08:43:07.310Z,3.33
2023-04-19T08:45:52.231Z,1.60
2023-04-19T08:48:37.672Z,3.07
2023-04-19T08:51:22.340Z,2.77
2023-04-19T08:54:08.728Z,1.90
2023-04-19T08:56:54.169Z,2.43
2023-04-19T08:59:38.068Z,1.50
2023-04-19T09:02:22.150Z,2.10
2023-04-19T09:05:07.689Z,4.63
2023-04-19T09:07:52.070Z,1.80
2023-04-19T09:10:37.277Z,1.17
2023-04-19T09:13:21.308Z,1.33
2023-04-19T09:16:05.683Z,0.90
2023-04-19T09:19:05.454Z,0.70
2023-04-19T09:22:14.814Z,0.90
2023-04-19T09:27:50.072Z,0.70
2023-04-19T09:30:38.086Z,0.83
2023-04-19T09:33:35.210Z,1.60
2023-04-19T09:36:29.045Z,0.80
2023-04-19T09:39:14.801Z,0.80
2023-04-19T09:41:59.404Z,2.27
2023-04-19T09:45:27.772Z,1.60
2023-04-19T09:48:07.799Z,1.73
2023-04-19T09:50:59.559Z,1.97
2023-04-19T09:53:45.383Z,0.73
2023-04-19T09:56:30.048Z,1.30
2023-04-19T09:59:25.218Z,1.10
2023-04-19T10:02:14.290Z,1.40
2023-04-19T10:05:16.227Z,1.73
2023-04-19T10:08:04.159Z,2.03
2023-04-19T10:10:54.240Z,3.10
2023-04-19T10:13:38.776Z,1.50
2023-04-19T10:16:23.017Z,2.40
2023-04-19T10:19:11.596Z,2.47
2023-04-19T10:21:56.609Z,3.93
2023-04-19T10:24:41.447Z,1.80
2023-04-19T10:27:27.165Z,1.77
2023-04-19T10:30:19.058Z,1.77
2023-04-19T10:33:04.164Z,2.57
2023-04-19T10:35:49.632Z,1.70
2023-04-19T10:38:38.273Z,1.60
2023-04-19T10:41:23.265Z,2.67
2023-04-19T10:44:11.484Z,1.30
2023-04-19T10:46:55.400Z,1.17
2023-04-19T10:49:47.078Z,2.27
2023-04-19T10:52:32.584Z,1.70
2023-04-19T10:55:19.636Z,2.00
2023-04-19T10:58:06.429Z,2.00
2023-04-19T11:00:50.351Z,2.53
2023-04-19T11:03:53.583Z,2.30
2023-04-19T11:06:38.297Z,3.43
2023-04-19T11:09:25.528Z,4.33
2023-04-19T11:12:12.425Z,3.10
2023-04-19T11:14:59.996Z,3.33
2023-04-19T11:17:44.257Z,3.50
2023-04-19T11:20:28.293Z,3.70
2023-04-19T11:23:17.732Z,4.50
2023-04-19T11:26:03.221Z,5.00
2023-04-19T11:28:47.064Z,5.90
2023-04-19T11:31:33.688Z,5.90
2023-04-19T11:34:19.572Z,6.73
2023-04-19T11:37:03.772Z,7.43
2023-04-19T11:39:48.540Z,7.43
2023-04-19T11:42:34.610Z,9.17
2023-04-19T11:45:30.116Z,9.80
2023-04-19T11:48:15.903Z,8.47
2023-04-19T11:51:00.910Z,8.33
2023-04-19T11:53:45.348Z,8.37
2023-04-19T11:56:29.481Z,8.80
2023-04-19T11:59:14.741Z,8.10
2023-04-19T12:02:06.455Z,9.67
2023-04-19T12:04:50.742Z,7.80
2023-04-19T12:07:34.655Z,8.50
2023-04-19T12:10:18.537Z,8.53
2023-04-19T12:13:18.533Z,8.47
2023-04-19T12:16:04.546Z,8.27
2023-04-19T12:18:50.716Z,10.90
2023-04-19T12:21:34.826Z,8.30
2023-04-19T12:24:18.838Z,10.27
2023-04-19T12:27:03.259Z,9.20
2023-04-19T12:29:48.151Z,9.43
2023-04-19T12:32:33.521Z,11.23
2023-04-19T12:35:17.443Z,9.47
2023-04-19T12:38:02.805Z,8.77
2023-04-19T12:40:46.613Z,8.93
2023-04-19T12:43:32.077Z,14.93
2023-04-19T12:46:15.983Z,11.63
2023-04-19T12:49:01.419Z,9.17
2023-04-19T12:51:47.503Z,8.90
2023-04-19T12:54:31.248Z,8.60
2023-04-19T12:57:15.149Z,12.60
2023-04-19T12:59:59.096Z,9.93
2023-04-19T13:02:43.231Z,9.97
2023-04-19T13:05:28.622Z,14.40
2023-04-19T13:08:12.560Z,10.80
2023-04-19T13:10:56.998Z,10.70
2023-04-19T13:13:40.799Z,9.90
2023-04-19T13:16:24.741Z,7.07
2023-04-19T13:19:08.834Z,9.43
2023-04-19T13:21:54.240Z,11.00
2023-04-19T13:24:38.245Z,7.03
2023-04-19T13:27:22.161Z,10.77
2023-04-19T13:30:07.015Z,5.70
2023-04-19T13:32:52.384Z,5.95
2023-04-19T13:35:36.296Z,6.80
2023-04-19T13:38:21.505Z,7.17
2023-04-19T13:41:05.656Z,5.43
2023-04-19T13:43:49.781Z,9.43
2023-04-19T13:46:34.073Z,6.70
2023-04-19T13:49:18.430Z,4.70
2023-04-19T13:52:02.336Z,7.57
2023-04-19T13:54:47.738Z,7.10
2023-04-19T13:57:31.588Z,6.53
2023-04-19T14:00:16.781Z,6.25
2023-04-19T14:03:00.769Z,7.45
2023-04-19T14:05:44.756Z,7.35
2023-04-19T14:08:32.580Z,10.20
2023-04-19T14:11:18.657Z,7.47
2023-04-19T14:14:02.734Z,7.43
2023-04-19T14:16:47.130Z,7.10
2023-04-19T14:19:31.425Z,5.30
2023-04-19T14:22:15.353Z,6.13
2023-04-19T14:24:59.251Z,7.57
2023-04-19T14:27:44.748Z,7.10
2023-04-19T14:30:29.994Z,6.33
2023-04-19T14:33:15.349Z,6.43
2023-04-19T14:35:59.284Z,7.13
2023-04-19T14:38:43.075Z,5.97
2023-04-19T14:41:27.034Z,6.10
2023-04-19T14:44:12.307Z,5.73
2023-04-19T14:46:56.281Z,5.60
2023-04-19T14:49:40.335Z,5.77
2023-04-19T14:52:24.590Z,6.87
2023-04-19T14:55:09.710Z,5.97
2023-04-19T14:57:53.586Z,9.90
2023-04-19T15:00:38.928Z,6.53
2023-04-19T15:03:23.096Z,9.67
2023-04-19T15:06:08.088Z,6.60
2023-04-19T15:08:51.998Z,10.20
2023-04-19T15:11:35.890Z,9.43
2023-04-19T15:14:20.039Z,9.40
2023-04-19T15:17:05.310Z,8.90
2023-04-19T15:19:49.205Z,9.13
2023-04-19T15:22:33.826Z,6.50
2023-04-19T15:25:17.868Z,8.73
2023-04-19T15:28:01.851Z,5.90
2023-04-19T15:30:45.867Z,6.17
2023-04-19T15:33:31.553Z,7.03
2023-04-19T15:36:15.916Z,9.47
2023-04-19T15:38:59.808Z,8.57
2023-04-19T15:41:43.613Z,8.23
2023-04-19T15:44:27.556Z,7.13
2023-04-19T15:47:11.466Z,6.17
2023-04-19T15:49:57.540Z,6.27
2023-04-19T15:52:41.354Z,6.50
2023-04-19T15:55:25.148Z,6.10
2023-04-19T15:58:08.969Z,8.20
2023-04-19T16:00:52.963Z,6.30
2023-04-19T16:03:37.207Z,8.37
2023-04-19T16:06:23.172Z,6.50
2023-04-19T16:09:08.373Z,6.83
2023-04-19T16:11:52.593Z,8.43
2023-04-19T16:14:36.926Z,8.73
2023-04-19T16:17:20.824Z,8.20
2023-04-19T16:20:04.929Z,7.70
2023-04-19T16:22:50.361Z,6.63
2023-04-19T16:25:34.725Z,8.07
2023-04-19T16:28:19.028Z,8.03
2023-04-19T16:31:02.959Z,9.43
2023-04-19T16:33:46.750Z,6.83
2023-04-19T16:36:31.632Z,7.73
2023-04-19T16:39:17.291Z,7.80
2023-04-19T16:42:01.480Z,11.60
2023-04-19T16:44:45.464Z,8.07
2023-04-19T16:47:30.169Z,8.20
2023-04-19T16:50:14.368Z,11.20
2023-04-19T16:52:58.654Z,7.80
2023-04-19T16:55:43.865Z,10.57
2023-04-19T16:58:28.334Z,13.30
2023-04-19T17:01:12.463Z,12.90
2023-04-19T17:03:56.726Z,8.43
2023-04-19T17:06:41.710Z,8.93
2023-04-19T17:09:25.737Z,9.17
2023-04-19T17:12:11.358Z,9.70
2023-04-19T17:14:55.390Z,8.33
2023-04-19T17:17:40.113Z,8.10
2023-04-19T17:20:24.245Z,7.80
2023-04-19T17:23:08.537Z,8.80
2023-04-19T17:25:52.533Z,7.90
2023-04-19T17:28:38.140Z,12.63
2023-04-19T17:31:22.243Z,8.67
2023-04-19T17:34:06.031Z,8.40
2023-04-19T17:36:49.940Z,8.70
2023-04-19T17:39:33.821Z,8.27
2023-04-19T17:42:17.785Z,8.90
2023-04-19T17:45:03.281Z,8.87
2023-04-19T17:47:48.550Z,13.40
2023-04-19T17:50:32.527Z,11.90
2023-04-19T17:53:16.388Z,13.70
2023-04-19T17:56:00.584Z,18.77
2023-04-19T17:58:44.466Z,18.13
2023-04-19T18:01:30.197Z,13.10
2023-04-19T18:04:17.992Z,13.23
2023-04-19T18:07:02.323Z,14.57
2023-04-19T18:09:46.379Z,13.37
2023-04-19T18:12:30.217Z,11.77
2023-04-19T18:15:14.190Z,12.13
2023-04-19T18:17:59.606Z,13.17
2023-04-19T18:20:43.550Z,15.43
2023-04-19T18:23:27.368Z,13.10
2023-04-19T18:26:11.180Z,11.83
2023-04-19T18:28:55.038Z,12.37
2023-04-19T18:31:39.227Z,13.87
2023-04-19T18:34:24.608Z,10.33
2023-04-19T18:37:16.811Z,9.80
2023-04-19T18:40:00.629Z,12.10
2023-04-19T18:42:46.869Z,12.40
2023-04-19T18:45:31.485Z,16.17
2023-04-19T18:48:15.467Z,12.90
2023-04-19T18:51:00.944Z,11.37
2023-04-19T18:53:45.534Z,11.80
2023-04-19T18:59:16.747Z,13.00
2023-04-19T19:02:00.905Z,10.73
2023-04-19T19:04:56.130Z,12.23
2023-04-19T19:07:44.041Z,10.40
2023-04-19T19:10:54.216Z,10.37
2023-04-19T19:13:32.377Z,11.23
2023-04-19T19:16:19.427Z,11.70
2023-04-19T19:19:03.526Z,10.43
2023-04-19T19:21:48.514Z,12.20
2023-04-19T19:24:33.857Z,12.17
2023-04-19T19:27:17.738Z,10.30
2023-04-19T19:30:03.496Z,12.37
2023-04-19T19:32:48.565Z,10.70
2023-04-19T19:35:32.797Z,13.53
2023-04-19T19:38:17.151Z,12.03
2023-04-19T19:43:49.281Z,16.77
2023-04-19T19:46:33.475Z,19.97
2023-04-19T19:49:18.537Z,22.17
2023-04-19T19:52:03.279Z,15.90
2023-04-19T19:54:47.150Z,13.90
2023-04-19T20:03:07.070Z,11.83
2023-04-19T20:05:52.109Z,13.17
2023-04-19T20:08:42.476Z,14.33
2023-04-19T20:11:28.068Z,12.63
2023-04-19T20:14:13.347Z,11.50
2023-04-19T20:16:57.476Z,15.57
2023-04-19T20:19:45.029Z,11.27
2023-04-19T20:22:28.948Z,10.37
2023-04-19T20:25:13.259Z,11.70
2023-04-19T20:27:57.046Z,11.57
2023-04-19T20:30:42.388Z,11.37
2023-04-19T20:33:26.302Z,10.80
2023-04-19T20:36:10.134Z,11.87
2023-04-19T20:38:54.142Z,14.30
2023-04-19T20:41:38.179Z,13.07
2023-04-19T20:44:23.188Z,12.80
2023-04-19T20:47:09.010Z,15.23
2023-04-19T20:49:52.924Z,12.27
2023-04-19T20:52:36.762Z,14.17
2023-04-19T20:55:20.530Z,17.07
2023-04-19T20:58:04.261Z,13.03
2023-04-19T21:00:48.614Z,15.73
2023-04-19T21:03:34.088Z,12.73
2023-04-19T21:06:18.302Z,11.90
2023-04-19T21:09:04.413Z,12.13
2023-04-19T21:11:48.361Z,14.40
2023-04-19T21:14:33.715Z,12.83
2023-04-19T21:17:17.574Z,16.87
2023-04-19T21:20:10.945Z,20.40
2023-04-19T21:22:54.964Z,16.63
2023-04-19T21:25:38.845Z,13.53
2023-04-19T21:28:22.724Z,14.00
2023-04-19T21:31:06.856Z,12.20
2023-04-19T21:33:50.762Z,12.60
2023-04-19T21:36:35.990Z,14.10
2023-04-19T21:39:19.818Z,14.03
2023-04-19T21:42:03.908Z,16.67
2023-04-19T21:44:47.964Z,13.30
2023-04-19T21:47:32.252Z,13.90
2023-04-19T21:50:16.215Z,12.97
2023-04-19T21:53:01.521Z,13.77
2023-04-19T21:55:45.443Z,14.50
2023-04-19T21:58:29.222Z,17.43
2023-04-19T22:01:13.105Z,15.67
2023-04-19T22:03:57.147Z,15.43
2023-04-19T22:06:41.625Z,16.20
2023-04-19T22:09:26.927Z,18.03
2023-04-19T22:12:11.609Z,17.93
2023-04-19T22:14:56.045Z,17.67
2023-04-19T22:17:40.496Z,18.23
2023-04-19T22:20:26.042Z,18.53
2023-04-19T22:23:10.108Z,18.77
2023-04-19T22:25:55.610Z,18.37
2023-04-19T22:28:39.789Z,22.63
2023-04-19T22:31:23.848Z,19.40
2023-04-19T22:34:07.871Z,19.83
2023-04-19T22:36:51.970Z,20.43
2023-04-19T22:39:36.084Z,20.17
2023-04-19T22:42:21.646Z,22.93
2023-04-19T22:45:06.422Z,20.70
2023-04-19T22:47:50.296Z,22.57
2023-04-19T22:50:34.447Z,21.43
2023-04-19T22:53:18.492Z,23.40
2023-04-19T22:56:02.420Z,18.70
2023-04-19T22:58:47.909Z,19.87
2023-04-19T23:01:32.077Z,20.07
2023-04-19T23:04:16.330Z,19.93
2023-04-19T23:07:00.383Z,24.50
2023-04-19T23:09:44.488Z,21.57
2023-04-19T23:12:31.149Z,20.90
2023-04-19T23:15:16.740Z,20.80
2023-04-19T23:18:02.456Z,23.10
2023-04-19T23:20:46.783Z,19.90
2023-04-19T23:23:30.841Z,19.37
2023-04-19T23:26:14.802Z,19.83
2023-04-19T23:28:58.737Z,20.10
2023-04-19T23:31:44.263Z,20.23
2023-04-19T23:34:28.348Z,19.53
2023-04-19T23:37:12.499Z,18.77
2023-04-19T23:39:56.580Z,19.40
2023-04-19T23:42:40.837Z,18.73
2023-04-19T23:45:24.929Z,20.40
2023-04-19T23:48:10.526Z,20.40
2023-04-19T23:50:54.632Z,19.87
2023-04-19T23:53:38.924Z,18.83
2023-04-19T23:56:23.000Z,18.27
2023-04-19T23:59:07.242Z,18.47
